sensor_id;sensor_type;location;lat;lon;timestamp;temperature;humidity
28244;DHT22;15510;52.512;13.300;2022-12-07T00:01:27;4.00;99.90
28244;DHT22;15510;52.512;13.300;2022-12-07T00:03:55;4.00;99.90
28244;DHT22;15510;52.512;13.300;2022-12-07T00:06:26;4.00;99.90
28244;DHT22;15510;52.512;13.300;2022-12-07T00:08:52;4.00;99.90
28244;DHT22;15510;52.512;13.300;2022-12-07T00:11:22;4.00;99.90
28244;DHT22;15510;52.512;13.300;2022-12-07T00:13:56;4.00;99.90
28244;DHT22;15510;52.512;13.300;2022-12-07T00:16:26;3.90;99.90
28244;DHT22;15510;52.512;13.300;2022-12-07T00:18:53;4.00;99.90
28244;DHT22;15510;52.512;13.300;2022-12-07T00:21:22;4.00;99.90
28244;DHT22;15510;52.512;13.300;2022-12-07T00:23:50;4.00;99.90
28244;DHT22;15510;52.512;13.300;2022-12-07T00:26:18;4.10;99.90
28244;DHT22;15510;52.512;13.300;2022-12-07T00:28:46;4.10;99.90
28244;DHT22;15510;52.512;13.300;2022-12-07T00:31:13;4.00;99.90
28244;DHT22;15510;52.512;13.300;2022-12-07T00:33:39;3.90;99.90
28244;DHT22;15510;52.512;13.300;2022-12-07T00:36:07;3.80;99.90
28244;DHT22;15510;52.512;13.300;2022-12-07T00:38:35;3.60;99.90
28244;DHT22;15510;52.512;13.300;2022-12-07T00:41:12;3.50;99.90
28244;DHT22;15510;52.512;13.300;2022-12-07T00:43:38;3.50;99.90
28244;DHT22;15510;52.512;13.300;2022-12-07T00:46:04;3.60;99.90
28244;DHT22;15510;52.512;13.300;2022-12-07T00:48:30;3.60;99.90
28244;DHT22;15510;52.512;13.300;2022-12-07T00:50:56;3.50;99.90
28244;DHT22;15510;52.512;13.300;2022-12-07T00:53:22;3.40;99.90
28244;DHT22;15510;52.512;13.300;2022-12-07T00:55:48;3.50;99.90
28244;DHT22;15510;52.512;13.300;2022-12-07T00:58:14;3.40;99.90
28244;DHT22;15510;52.512;13.300;2022-12-07T01:00:41;3.40;99.90
28244;DHT22;15510;52.512;13.300;2022-12-07T01:03:10;3.50;99.90
28244;DHT22;15510;52.512;13.300;2022-12-07T01:05:36;3.50;99.90
28244;DHT22;15510;52.512;13.300;2022-12-07T01:08:03;3.60;99.90
28244;DHT22;15510;52.512;13.300;2022-12-07T01:10:29;3.60;99.90
28244;DHT22;15510;52.512;13.300;2022-12-07T01:12:57;3.60;99.90
28244;DHT22;15510;52.512;13.300;2022-12-07T01:15:24;3.70;99.90
28244;DHT22;15510;52.512;13.300;2022-12-07T01:17:50;3.60;99.90
28244;DHT22;15510;52.512;13.300;2022-12-07T01:20:16;3.60;99.90
28244;DHT22;15510;52.512;13.300;2022-12-07T01:22:43;3.70;99.90
28244;DHT22;15510;52.512;13.300;2022-12-07T01:25:10;3.70;99.90
28244;DHT22;15510;52.512;13.300;2022-12-07T01:27:37;3.70;99.90
28244;DHT22;15510;52.512;13.300;2022-12-07T01:30:04;3.60;99.90
28244;DHT22;15510;52.512;13.300;2022-12-07T01:32:31;3.60;99.90
28244;DHT22;15510;52.512;13.300;2022-12-07T01:34:56;3.40;99.90
28244;DHT22;15510;52.512;13.300;2022-12-07T01:37:22;3.40;99.90
28244;DHT22;15510;52.512;13.300;2022-12-07T01:39:49;3.30;99.90
28244;DHT22;15510;52.512;13.300;2022-12-07T01:42:15;3.40;99.90
28244;DHT22;15510;52.512;13.300;2022-12-07T01:47:58;3.30;99.90
28244;DHT22;15510;52.512;13.300;2022-12-07T01:50:26;3.30;99.90
28244;DHT22;15510;52.512;13.300;2022-12-07T01:52:54;3.30;99.90
28244;DHT22;15510;52.512;13.300;2022-12-07T01:55:20;3.30;99.90
28244;DHT22;15510;52.512;13.300;2022-12-07T01:57:49;3.30;99.90
28244;DHT22;15510;52.512;13.300;2022-12-07T02:00:17;3.20;99.90
28244;DHT22;15510;52.512;13.300;2022-12-07T02:02:55;3.20;99.90
28244;DHT22;15510;52.512;13.300;2022-12-07T02:05:24;3.20;99.90
28244;DHT22;15510;52.512;13.300;2022-12-07T02:07:51;3.10;99.90
28244;DHT22;15510;52.512;13.300;2022-12-07T02:10:24;3.10;99.90
28244;DHT22;15510;52.512;13.300;2022-12-07T02:12:58;3.00;99.90
28244;DHT22;15510;52.512;13.300;2022-12-07T02:18:13;2.80;99.90
28244;DHT22;15510;52.512;13.300;2022-12-07T02:35:05;2.90;99.90
28244;DHT22;15510;52.512;13.300;2022-12-07T02:43:53;2.80;99.90
28244;DHT22;15510;52.512;13.300;2022-12-07T02:46:04;2.80;99.90
28244;DHT22;15510;52.512;13.300;2022-12-07T02:48:32;2.80;99.90
28244;DHT22;15510;52.512;13.300;2022-12-07T02:50:59;2.90;99.90
28244;DHT22;15510;52.512;13.300;2022-12-07T02:53:39;2.80;99.90
28244;DHT22;15510;52.512;13.300;2022-12-07T02:59:14;2.80;99.90
28244;DHT22;15510;52.512;13.300;2022-12-07T03:08:02;2.70;99.90
28244;DHT22;15510;52.512;13.300;2022-12-07T03:18:30;2.70;99.90
28244;DHT22;15510;52.512;13.300;2022-12-07T03:21:00;2.70;99.90
28244;DHT22;15510;52.512;13.300;2022-12-07T03:23:28;2.80;99.90
28244;DHT22;15510;52.512;13.300;2022-12-07T03:25:58;2.90;99.90
28244;DHT22;15510;52.512;13.300;2022-12-07T03:28:31;2.90;99.90
28244;DHT22;15510;52.512;13.300;2022-12-07T03:34:06;2.80;99.90
28244;DHT22;15510;52.512;13.300;2022-12-07T03:36:57;2.90;99.90
28244;DHT22;15510;52.512;13.300;2022-12-07T03:39:30;2.90;99.90
28244;DHT22;15510;52.512;13.300;2022-12-07T03:41:59;2.90;99.90
28244;DHT22;15510;52.512;13.300;2022-12-07T03:44:27;2.90;99.90
28244;DHT22;15510;52.512;13.300;2022-12-07T03:47:13;2.90;99.90
28244;DHT22;15510;52.512;13.300;2022-12-07T03:49:59;2.90;99.90
28244;DHT22;15510;52.512;13.300;2022-12-07T03:52:40;3.00;99.90
28244;DHT22;15510;52.512;13.300;2022-12-07T03:55:25;3.00;99.90
28244;DHT22;15510;52.512;13.300;2022-12-07T03:57:56;3.10;99.90
28244;DHT22;15510;52.512;13.300;2022-12-07T04:00:22;3.10;99.90
28244;DHT22;15510;52.512;13.300;2022-12-07T04:02:51;3.00;99.90
28244;DHT22;15510;52.512;13.300;2022-12-07T04:05:17;3.00;99.90
28244;DHT22;15510;52.512;13.300;2022-12-07T04:07:43;2.90;99.90
28244;DHT22;15510;52.512;13.300;2022-12-07T04:10:09;2.90;99.90
28244;DHT22;15510;52.512;13.300;2022-12-07T04:12:35;2.90;99.90
28244;DHT22;15510;52.512;13.300;2022-12-07T04:15:01;2.80;99.90
28244;DHT22;15510;52.512;13.300;2022-12-07T04:17:26;2.80;99.90
28244;DHT22;15510;52.512;13.300;2022-12-07T04:19:52;2.80;99.90
28244;DHT22;15510;52.512;13.300;2022-12-07T04:22:17;2.80;99.90
28244;DHT22;15510;52.512;13.300;2022-12-07T04:24:43;2.80;99.90
28244;DHT22;15510;52.512;13.300;2022-12-07T04:27:09;2.70;99.90
28244;DHT22;15510;52.512;13.300;2022-12-07T04:29:34;2.70;99.90
28244;DHT22;15510;52.512;13.300;2022-12-07T04:32:00;2.70;99.90
28244;DHT22;15510;52.512;13.300;2022-12-07T04:34:26;2.70;99.90
28244;DHT22;15510;52.512;13.300;2022-12-07T04:36:52;2.70;99.90
28244;DHT22;15510;52.512;13.300;2022-12-07T04:39:23;2.70;99.90
28244;DHT22;15510;52.512;13.300;2022-12-07T04:41:49;2.70;99.90
28244;DHT22;15510;52.512;13.300;2022-12-07T04:44:15;2.70;99.90
28244;DHT22;15510;52.512;13.300;2022-12-07T04:46:42;2.70;99.90
28244;DHT22;15510;52.512;13.300;2022-12-07T04:49:09;2.70;99.90
28244;DHT22;15510;52.512;13.300;2022-12-07T04:51:34;2.70;99.90
28244;DHT22;15510;52.512;13.300;2022-12-07T04:54:00;2.70;99.90
28244;DHT22;15510;52.512;13.300;2022-12-07T04:56:26;2.90;99.90
28244;DHT22;15510;52.512;13.300;2022-12-07T04:58:53;2.90;99.90
28244;DHT22;15510;52.512;13.300;2022-12-07T05:01:20;2.90;99.90
28244;DHT22;15510;52.512;13.300;2022-12-07T05:03:46;3.00;99.90
28244;DHT22;15510;52.512;13.300;2022-12-07T05:06:13;3.00;99.90
28244;DHT22;15510;52.512;13.300;2022-12-07T05:08:39;3.10;99.90
28244;DHT22;15510;52.512;13.300;2022-12-07T05:11:06;3.10;99.90
28244;DHT22;15510;52.512;13.300;2022-12-07T05:13:33;3.10;99.90
28244;DHT22;15510;52.512;13.300;2022-12-07T05:15:59;3.20;99.90
28244;DHT22;15510;52.512;13.300;2022-12-07T05:18:25;3.20;99.90
28244;DHT22;15510;52.512;13.300;2022-12-07T05:20:51;3.30;99.90
28244;DHT22;15510;52.512;13.300;2022-12-07T05:23:17;3.30;99.90
28244;DHT22;15510;52.512;13.300;2022-12-07T05:25:43;3.30;99.90
28244;DHT22;15510;52.512;13.300;2022-12-07T05:28:09;3.40;99.90
28244;DHT22;15510;52.512;13.300;2022-12-07T05:30:35;3.40;99.90
28244;DHT22;15510;52.512;13.300;2022-12-07T05:33:01;3.40;99.90
28244;DHT22;15510;52.512;13.300;2022-12-07T05:35:28;3.40;99.90
28244;DHT22;15510;52.512;13.300;2022-12-07T05:37:54;3.40;99.90
28244;DHT22;15510;52.512;13.300;2022-12-07T05:40:20;3.40;99.90
28244;DHT22;15510;52.512;13.300;2022-12-07T05:42:46;3.40;99.90
28244;DHT22;15510;52.512;13.300;2022-12-07T05:45:12;3.40;99.90
28244;DHT22;15510;52.512;13.300;2022-12-07T05:47:37;3.40;99.90
28244;DHT22;15510;52.512;13.300;2022-12-07T05:50:04;3.50;99.90
28244;DHT22;15510;52.512;13.300;2022-12-07T05:52:30;3.50;99.90
28244;DHT22;15510;52.512;13.300;2022-12-07T05:54:56;3.60;99.90
28244;DHT22;15510;52.512;13.300;2022-12-07T05:57:22;3.50;99.90
28244;DHT22;15510;52.512;13.300;2022-12-07T05:59:47;3.50;99.90
28244;DHT22;15510;52.512;13.300;2022-12-07T06:02:15;3.60;99.90
28244;DHT22;15510;52.512;13.300;2022-12-07T06:04:43;3.60;99.90
28244;DHT22;15510;52.512;13.300;2022-12-07T06:07:11;3.60;99.90
28244;DHT22;15510;52.512;13.300;2022-12-07T06:09:37;3.60;99.90
28244;DHT22;15510;52.512;13.300;2022-12-07T06:12:03;3.70;99.90
28244;DHT22;15510;52.512;13.300;2022-12-07T06:14:47;3.70;99.90
28244;DHT22;15510;52.512;13.300;2022-12-07T06:17:13;3.70;99.90
28244;DHT22;15510;52.512;13.300;2022-12-07T06:19:40;3.70;99.90
28244;DHT22;15510;52.512;13.300;2022-12-07T06:22:06;3.70;99.90
28244;DHT22;15510;52.512;13.300;2022-12-07T06:24:33;3.70;99.90
28244;DHT22;15510;52.512;13.300;2022-12-07T06:26:59;3.80;99.90
28244;DHT22;15510;52.512;13.300;2022-12-07T06:29:25;3.70;99.90
28244;DHT22;15510;52.512;13.300;2022-12-07T06:31:50;3.70;99.90
28244;DHT22;15510;52.512;13.300;2022-12-07T06:34:18;3.80;99.90
28244;DHT22;15510;52.512;13.300;2022-12-07T06:36:45;3.70;99.90
28244;DHT22;15510;52.512;13.300;2022-12-07T06:39:12;3.80;99.90
28244;DHT22;15510;52.512;13.300;2022-12-07T06:41:39;3.80;99.90
28244;DHT22;15510;52.512;13.300;2022-12-07T06:44:05;3.80;99.90
28244;DHT22;15510;52.512;13.300;2022-12-07T06:46:32;3.80;99.90
28244;DHT22;15510;52.512;13.300;2022-12-07T06:48:58;3.90;99.90
28244;DHT22;15510;52.512;13.300;2022-12-07T06:51:24;3.90;99.90
28244;DHT22;15510;52.512;13.300;2022-12-07T06:53:49;3.80;99.90
28244;DHT22;15510;52.512;13.300;2022-12-07T06:56:16;3.90;99.90
28244;DHT22;15510;52.512;13.300;2022-12-07T06:58:42;3.90;99.90
28244;DHT22;15510;52.512;13.300;2022-12-07T07:01:12;3.90;99.90
28244;DHT22;15510;52.512;13.300;2022-12-07T07:03:38;3.90;99.90
28244;DHT22;15510;52.512;13.300;2022-12-07T07:06:05;3.90;99.90
28244;DHT22;15510;52.512;13.300;2022-12-07T07:08:31;3.90;99.90
28244;DHT22;15510;52.512;13.300;2022-12-07T07:10:57;3.90;99.90
28244;DHT22;15510;52.512;13.300;2022-12-07T07:13:22;3.90;99.90
28244;DHT22;15510;52.512;13.300;2022-12-07T07:15:48;3.90;99.90
28244;DHT22;15510;52.512;13.300;2022-12-07T07:18:14;3.90;99.90
28244;DHT22;15510;52.512;13.300;2022-12-07T07:20:40;3.90;99.90
28244;DHT22;15510;52.512;13.300;2022-12-07T07:23:06;4.00;99.90
28244;DHT22;15510;52.512;13.300;2022-12-07T07:25:32;4.00;99.90
28244;DHT22;15510;52.512;13.300;2022-12-07T07:27:58;4.10;99.90
28244;DHT22;15510;52.512;13.300;2022-12-07T07:30:24;4.10;99.90
28244;DHT22;15510;52.512;13.300;2022-12-07T07:32:50;4.10;99.90
28244;DHT22;15510;52.512;13.300;2022-12-07T07:35:16;4.10;99.90
28244;DHT22;15510;52.512;13.300;2022-12-07T07:37:42;4.10;99.90
28244;DHT22;15510;52.512;13.300;2022-12-07T07:40:09;4.00;99.90
28244;DHT22;15510;52.512;13.300;2022-12-07T07:42:35;4.00;99.90
28244;DHT22;15510;52.512;13.300;2022-12-07T07:45:00;4.00;99.90
28244;DHT22;15510;52.512;13.300;2022-12-07T07:47:26;3.90;99.90
28244;DHT22;15510;52.512;13.300;2022-12-07T07:49:52;4.00;99.90
28244;DHT22;15510;52.512;13.300;2022-12-07T07:52:17;4.00;99.90
28244;DHT22;15510;52.512;13.300;2022-12-07T07:54:43;4.10;99.90
28244;DHT22;15510;52.512;13.300;2022-12-07T07:57:09;4.10;99.90
28244;DHT22;15510;52.512;13.300;2022-12-07T07:59:34;4.20;99.90
28244;DHT22;15510;52.512;13.300;2022-12-07T08:02:00;4.30;99.90
28244;DHT22;15510;52.512;13.300;2022-12-07T08:04:26;4.40;99.90
28244;DHT22;15510;52.512;13.300;2022-12-07T08:06:51;4.50;99.90
28244;DHT22;15510;52.512;13.300;2022-12-07T08:09:17;4.50;99.90
28244;DHT22;15510;52.512;13.300;2022-12-07T08:11:43;4.50;99.90
28244;DHT22;15510;52.512;13.300;2022-12-07T08:14:10;4.50;99.90
28244;DHT22;15510;52.512;13.300;2022-12-07T08:16:37;4.50;99.90
28244;DHT22;15510;52.512;13.300;2022-12-07T08:19:05;4.50;99.90
28244;DHT22;15510;52.512;13.300;2022-12-07T08:21:30;4.50;99.90
28244;DHT22;15510;52.512;13.300;2022-12-07T08:23:57;4.60;99.90
28244;DHT22;15510;52.512;13.300;2022-12-07T08:26:22;4.70;99.90
28244;DHT22;15510;52.512;13.300;2022-12-07T08:28:48;4.80;99.90
28244;DHT22;15510;52.512;13.300;2022-12-07T08:31:16;4.80;99.90
28244;DHT22;15510;52.512;13.300;2022-12-07T08:33:47;4.80;99.90
28244;DHT22;15510;52.512;13.300;2022-12-07T08:36:13;4.90;99.90
28244;DHT22;15510;52.512;13.300;2022-12-07T08:38:40;4.90;99.90
28244;DHT22;15510;52.512;13.300;2022-12-07T08:41:07;4.90;99.90
28244;DHT22;15510;52.512;13.300;2022-12-07T08:43:34;4.90;99.90
28244;DHT22;15510;52.512;13.300;2022-12-07T08:46:18;5.00;99.90
28244;DHT22;15510;52.512;13.300;2022-12-07T08:48:54;5.00;99.90
28244;DHT22;15510;52.512;13.300;2022-12-07T08:51:22;5.00;99.90
28244;DHT22;15510;52.512;13.300;2022-12-07T08:53:49;5.00;99.90
28244;DHT22;15510;52.512;13.300;2022-12-07T08:56:15;5.00;99.90
28244;DHT22;15510;52.512;13.300;2022-12-07T08:58:42;5.10;99.90
28244;DHT22;15510;52.512;13.300;2022-12-07T09:01:08;5.00;99.90
28244;DHT22;15510;52.512;13.300;2022-12-07T09:03:34;5.20;99.90
28244;DHT22;15510;52.512;13.300;2022-12-07T09:06:00;5.10;99.90
28244;DHT22;15510;52.512;13.300;2022-12-07T09:08:34;5.10;99.90
28244;DHT22;15510;52.512;13.300;2022-12-07T09:11:02;5.10;99.90
28244;DHT22;15510;52.512;13.300;2022-12-07T09:13:27;5.10;99.90
28244;DHT22;15510;52.512;13.300;2022-12-07T09:15:53;5.00;99.90
28244;DHT22;15510;52.512;13.300;2022-12-07T09:18:19;5.00;99.90
28244;DHT22;15510;52.512;13.300;2022-12-07T09:20:45;5.00;99.90
28244;DHT22;15510;52.512;13.300;2022-12-07T09:23:10;5.10;99.90
28244;DHT22;15510;52.512;13.300;2022-12-07T09:25:36;5.00;99.90
28244;DHT22;15510;52.512;13.300;2022-12-07T09:28:02;5.00;99.90
28244;DHT22;15510;52.512;13.300;2022-12-07T09:30:28;5.10;99.90
28244;DHT22;15510;52.512;13.300;2022-12-07T09:32:55;5.10;99.90
28244;DHT22;15510;52.512;13.300;2022-12-07T09:35:21;5.10;99.90
28244;DHT22;15510;52.512;13.300;2022-12-07T09:37:47;5.10;99.90
28244;DHT22;15510;52.512;13.300;2022-12-07T09:40:13;5.00;99.90
28244;DHT22;15510;52.512;13.300;2022-12-07T09:42:44;5.00;99.90
28244;DHT22;15510;52.512;13.300;2022-12-07T09:48:05;5.00;99.90
28244;DHT22;15510;52.512;13.300;2022-12-07T09:50:31;4.90;99.90
28244;DHT22;15510;52.512;13.300;2022-12-07T09:53:30;5.00;99.90
28244;DHT22;15510;52.512;13.300;2022-12-07T09:55:56;4.90;99.90
28244;DHT22;15510;52.512;13.300;2022-12-07T09:58:24;4.90;99.90
28244;DHT22;15510;52.512;13.300;2022-12-07T10:03:39;4.90;99.90
28244;DHT22;15510;52.512;13.300;2022-12-07T10:06:06;5.00;99.90
28244;DHT22;15510;52.512;13.300;2022-12-07T10:08:32;5.00;99.90
28244;DHT22;15510;52.512;13.300;2022-12-07T10:11:01;5.00;99.90
28244;DHT22;15510;52.512;13.300;2022-12-07T10:13:40;5.10;99.90
28244;DHT22;15510;52.512;13.300;2022-12-07T10:16:26;5.10;99.90
28244;DHT22;15510;52.512;13.300;2022-12-07T10:18:53;5.00;99.90
28244;DHT22;15510;52.512;13.300;2022-12-07T10:21:25;5.00;99.90
28244;DHT22;15510;52.512;13.300;2022-12-07T10:24:14;5.00;99.90
28244;DHT22;15510;52.512;13.300;2022-12-07T10:29:33;5.20;99.90
28244;DHT22;15510;52.512;13.300;2022-12-07T10:34:41;5.30;99.90
28244;DHT22;15510;52.512;13.300;2022-12-07T10:39:50;5.20;99.90
28244;DHT22;15510;52.512;13.300;2022-12-07T10:42:29;5.20;99.90
28244;DHT22;15510;52.512;13.300;2022-12-07T10:45:14;5.20;99.90
28244;DHT22;15510;52.512;13.300;2022-12-07T10:47:59;5.30;99.90
28244;DHT22;15510;52.512;13.300;2022-12-07T10:53:44;5.30;99.90
28244;DHT22;15510;52.512;13.300;2022-12-07T11:10:06;5.80;99.90
28244;DHT22;15510;52.512;13.300;2022-12-07T11:37:28;5.50;99.90
28244;DHT22;15510;52.512;13.300;2022-12-07T11:42:42;5.50;99.90
28244;DHT22;15510;52.512;13.300;2022-12-07T11:45:19;5.60;99.90
28244;DHT22;15510;52.512;13.300;2022-12-07T11:48:01;5.70;99.90
28244;DHT22;15510;52.512;13.300;2022-12-07T11:50:40;5.60;99.90
28244;DHT22;15510;52.512;13.300;2022-12-07T11:55:54;5.60;99.90
28244;DHT22;15510;52.512;13.300;2022-12-07T12:03:47;5.70;99.90
28244;DHT22;15510;52.512;13.300;2022-12-07T12:06:14;5.70;99.90
28244;DHT22;15510;52.512;13.300;2022-12-07T12:08:44;5.80;99.90
28244;DHT22;15510;52.512;13.300;2022-12-07T12:21:41;5.80;99.90
28244;DHT22;15510;52.512;13.300;2022-12-07T12:24:20;5.80;99.90
28244;DHT22;15510;52.512;13.300;2022-12-07T12:27:02;5.70;99.90
28244;DHT22;15510;52.512;13.300;2022-12-07T12:29:42;5.80;99.90
28244;DHT22;15510;52.512;13.300;2022-12-07T12:37:45;5.90;99.90
28244;DHT22;15510;52.512;13.300;2022-12-07T12:42:56;5.70;99.90
28244;DHT22;15510;52.512;13.300;2022-12-07T12:45:30;5.70;99.90
28244;DHT22;15510;52.512;13.300;2022-12-07T12:50:37;5.70;99.90
28244;DHT22;15510;52.512;13.300;2022-12-07T12:53:24;5.70;99.90
28244;DHT22;15510;52.512;13.300;2022-12-07T12:56:23;5.60;99.90
28244;DHT22;15510;52.512;13.300;2022-12-07T12:59:30;5.60;99.90
28244;DHT22;15510;52.512;13.300;2022-12-07T13:23:54;5.90;99.90
28244;DHT22;15510;52.512;13.300;2022-12-07T13:26:36;5.90;99.90
28244;DHT22;15510;52.512;13.300;2022-12-07T13:29:20;5.90;99.90
28244;DHT22;15510;52.512;13.300;2022-12-07T13:31:56;5.80;99.90
28244;DHT22;15510;52.512;13.300;2022-12-07T13:34:40;5.80;99.90
28244;DHT22;15510;52.512;13.300;2022-12-07T13:37:30;5.70;99.90
28244;DHT22;15510;52.512;13.300;2022-12-07T13:40:23;5.70;99.90
28244;DHT22;15510;52.512;13.300;2022-12-07T13:42:47;5.60;99.90
28244;DHT22;15510;52.512;13.300;2022-12-07T13:45:28;5.60;99.90
28244;DHT22;15510;52.512;13.300;2022-12-07T13:48:18;5.50;99.90
28244;DHT22;15510;52.512;13.300;2022-12-07T13:50:53;5.50;99.90
28244;DHT22;15510;52.512;13.300;2022-12-07T13:53:19;5.50;99.90
28244;DHT22;15510;52.512;13.300;2022-12-07T13:55:46;5.40;99.90
28244;DHT22;15510;52.512;13.300;2022-12-07T13:58:12;5.40;99.90
28244;DHT22;15510;52.512;13.300;2022-12-07T14:00:39;5.50;99.90
28244;DHT22;15510;52.512;13.300;2022-12-07T14:05:39;5.40;99.90
28244;DHT22;15510;52.512;13.300;2022-12-07T14:08:22;5.50;99.90
28244;DHT22;15510;52.512;13.300;2022-12-07T14:13:33;5.50;99.90
28244;DHT22;15510;52.512;13.300;2022-12-07T14:18:45;5.60;99.90
28244;DHT22;15510;52.512;13.300;2022-12-07T14:21:20;5.40;99.90
28244;DHT22;15510;52.512;13.300;2022-12-07T14:24:21;5.40;99.90
28244;DHT22;15510;52.512;13.300;2022-12-07T14:26:49;5.50;99.90
28244;DHT22;15510;52.512;13.300;2022-12-07T14:31:52;5.40;99.90
28244;DHT22;15510;52.512;13.300;2022-12-07T14:34:21;5.40;99.90
28244;DHT22;15510;52.512;13.300;2022-12-07T14:36:47;5.20;99.90
28244;DHT22;15510;52.512;13.300;2022-12-07T14:39:13;5.20;99.90
28244;DHT22;15510;52.512;13.300;2022-12-07T14:41:38;5.20;99.90
28244;DHT22;15510;52.512;13.300;2022-12-07T14:44:20;5.10;99.90
28244;DHT22;15510;52.512;13.300;2022-12-07T14:46:47;5.00;99.90
28244;DHT22;15510;52.512;13.300;2022-12-07T14:49:13;4.90;99.90
28244;DHT22;15510;52.512;13.300;2022-12-07T14:51:40;4.80;99.90
28244;DHT22;15510;52.512;13.300;2022-12-07T14:54:09;4.80;99.90
28244;DHT22;15510;52.512;13.300;2022-12-07T14:56:37;4.70;99.90
28244;DHT22;15510;52.512;13.300;2022-12-07T14:59:03;4.60;99.90
28244;DHT22;15510;52.512;13.300;2022-12-07T15:01:28;4.60;99.90
28244;DHT22;15510;52.512;13.300;2022-12-07T15:03:54;4.50;99.90
28244;DHT22;15510;52.512;13.300;2022-12-07T15:06:20;4.50;99.90
28244;DHT22;15510;52.512;13.300;2022-12-07T15:08:45;4.50;99.90
28244;DHT22;15510;52.512;13.300;2022-12-07T15:11:14;4.40;99.90
28244;DHT22;15510;52.512;13.300;2022-12-07T15:13:39;4.40;99.90
28244;DHT22;15510;52.512;13.300;2022-12-07T15:16:23;4.40;99.90
28244;DHT22;15510;52.512;13.300;2022-12-07T15:18:49;4.40;99.90
28244;DHT22;15510;52.512;13.300;2022-12-07T15:21:15;4.30;99.90
28244;DHT22;15510;52.512;13.300;2022-12-07T15:23:42;4.40;99.90
28244;DHT22;15510;52.512;13.300;2022-12-07T15:26:09;4.40;99.90
28244;DHT22;15510;52.512;13.300;2022-12-07T15:28:35;4.40;99.90
28244;DHT22;15510;52.512;13.300;2022-12-07T15:31:01;4.50;99.90
28244;DHT22;15510;52.512;13.300;2022-12-07T15:33:27;4.40;99.90
28244;DHT22;15510;52.512;13.300;2022-12-07T15:35:52;4.40;99.90
28244;DHT22;15510;52.512;13.300;2022-12-07T15:38:18;4.40;99.90
28244;DHT22;15510;52.512;13.300;2022-12-07T15:40:46;4.40;99.90
28244;DHT22;15510;52.512;13.300;2022-12-07T15:43:12;4.40;99.90
28244;DHT22;15510;52.512;13.300;2022-12-07T15:45:57;4.40;99.90
28244;DHT22;15510;52.512;13.300;2022-12-07T15:48:23;4.40;99.90
28244;DHT22;15510;52.512;13.300;2022-12-07T15:50:48;4.40;99.90
28244;DHT22;15510;52.512;13.300;2022-12-07T15:53:14;4.40;99.90
28244;DHT22;15510;52.512;13.300;2022-12-07T15:55:40;4.30;99.90
28244;DHT22;15510;52.512;13.300;2022-12-07T15:58:06;4.30;99.90
28244;DHT22;15510;52.512;13.300;2022-12-07T16:00:32;4.30;99.90
28244;DHT22;15510;52.512;13.300;2022-12-07T16:02:57;4.30;99.90
28244;DHT22;15510;52.512;13.300;2022-12-07T16:05:23;4.40;99.90
28244;DHT22;15510;52.512;13.300;2022-12-07T16:07:49;4.40;99.90
28244;DHT22;15510;52.512;13.300;2022-12-07T16:10:16;4.30;99.90
28244;DHT22;15510;52.512;13.300;2022-12-07T16:12:41;4.20;99.90
28244;DHT22;15510;52.512;13.300;2022-12-07T16:15:07;4.30;99.90
28244;DHT22;15510;52.512;13.300;2022-12-07T16:17:33;4.30;99.90
28244;DHT22;15510;52.512;13.300;2022-12-07T16:19:59;4.30;99.90
28244;DHT22;15510;52.512;13.300;2022-12-07T16:22:25;4.30;99.90
28244;DHT22;15510;52.512;13.300;2022-12-07T16:24:50;4.40;99.90
28244;DHT22;15510;52.512;13.300;2022-12-07T16:27:16;4.40;99.90
28244;DHT22;15510;52.512;13.300;2022-12-07T16:29:42;4.30;99.90
28244;DHT22;15510;52.512;13.300;2022-12-07T16:32:07;4.30;99.90
28244;DHT22;15510;52.512;13.300;2022-12-07T16:34:33;4.40;99.90
28244;DHT22;15510;52.512;13.300;2022-12-07T16:36:59;4.30;99.90
28244;DHT22;15510;52.512;13.300;2022-12-07T16:39:25;4.30;99.90
28244;DHT22;15510;52.512;13.300;2022-12-07T16:41:51;4.30;99.90
28244;DHT22;15510;52.512;13.300;2022-12-07T16:44:18;4.20;99.90
28244;DHT22;15510;52.512;13.300;2022-12-07T16:46:44;4.20;99.90
28244;DHT22;15510;52.512;13.300;2022-12-07T16:49:13;4.10;99.90
28244;DHT22;15510;52.512;13.300;2022-12-07T16:51:39;4.30;99.90
28244;DHT22;15510;52.512;13.300;2022-12-07T16:54:06;4.30;99.90
28244;DHT22;15510;52.512;13.300;2022-12-07T16:56:33;4.30;99.90
28244;DHT22;15510;52.512;13.300;2022-12-07T16:59:02;4.20;99.90
28244;DHT22;15510;52.512;13.300;2022-12-07T17:01:29;4.10;99.90
28244;DHT22;15510;52.512;13.300;2022-12-07T17:03:56;4.10;99.90
28244;DHT22;15510;52.512;13.300;2022-12-07T17:06:23;4.10;99.90
28244;DHT22;15510;52.512;13.300;2022-12-07T17:08:50;4.00;99.90
28244;DHT22;15510;52.512;13.300;2022-12-07T17:11:28;4.00;99.90
28244;DHT22;15510;52.512;13.300;2022-12-07T17:13:54;4.00;99.90
28244;DHT22;15510;52.512;13.300;2022-12-07T17:16:40;4.00;99.90
28244;DHT22;15510;52.512;13.300;2022-12-07T17:19:08;3.90;99.90
28244;DHT22;15510;52.512;13.300;2022-12-07T17:21:34;3.90;99.90
28244;DHT22;15510;52.512;13.300;2022-12-07T17:24:02;3.90;99.90
28244;DHT22;15510;52.512;13.300;2022-12-07T17:26:29;4.00;99.90
28244;DHT22;15510;52.512;13.300;2022-12-07T17:28:55;3.90;99.90
28244;DHT22;15510;52.512;13.300;2022-12-07T17:31:22;3.90;99.90
28244;DHT22;15510;52.512;13.300;2022-12-07T17:33:48;3.70;99.90
28244;DHT22;15510;52.512;13.300;2022-12-07T17:36:19;3.70;99.90
28244;DHT22;15510;52.512;13.300;2022-12-07T17:38:45;3.80;99.90
28244;DHT22;15510;52.512;13.300;2022-12-07T17:41:12;3.90;99.90
28244;DHT22;15510;52.512;13.300;2022-12-07T17:43:59;3.90;99.90
28244;DHT22;15510;52.512;13.300;2022-12-07T17:46:26;3.70;99.90
28244;DHT22;15510;52.512;13.300;2022-12-07T17:48:54;3.70;99.90
28244;DHT22;15510;52.512;13.300;2022-12-07T17:51:20;3.70;99.90
28244;DHT22;15510;52.512;13.300;2022-12-07T17:54:04;3.80;99.90
28244;DHT22;15510;52.512;13.300;2022-12-07T17:56:29;3.90;99.90
28244;DHT22;15510;52.512;13.300;2022-12-07T17:58:55;3.80;99.90
28244;DHT22;15510;52.512;13.300;2022-12-07T18:01:21;3.70;99.90
28244;DHT22;15510;52.512;13.300;2022-12-07T18:03:46;3.60;99.90
28244;DHT22;15510;52.512;13.300;2022-12-07T18:06:12;3.60;99.90
28244;DHT22;15510;52.512;13.300;2022-12-07T18:08:38;3.50;99.90
28244;DHT22;15510;52.512;13.300;2022-12-07T18:11:05;3.40;99.90
28244;DHT22;15510;52.512;13.300;2022-12-07T18:13:32;3.40;99.90
28244;DHT22;15510;52.512;13.300;2022-12-07T18:16:10;3.40;99.90
28244;DHT22;15510;52.512;13.300;2022-12-07T18:18:37;3.40;99.90
28244;DHT22;15510;52.512;13.300;2022-12-07T18:21:06;3.30;99.90
28244;DHT22;15510;52.512;13.300;2022-12-07T18:23:32;3.20;99.90
28244;DHT22;15510;52.512;13.300;2022-12-07T18:25:58;3.10;99.90
28244;DHT22;15510;52.512;13.300;2022-12-07T18:28:24;3.10;99.90